createdAt,value
2023-03-12T00:02:19.063Z,24.30
2023-03-12T00:04:48.118Z,24.20
2023-03-12T00:07:15.790Z,24.20
2023-03-12T00:09:43.502Z,24.20
2023-03-12T00:12:11.338Z,24.20
2023-03-12T00:14:40.093Z,24.20
2023-03-12T00:17:07.764Z,24.20
2023-03-12T00:19:35.464Z,24.20
2023-03-12T00:22:04.956Z,24.20
2023-03-12T00:24:33.081Z,24.20
2023-03-12T00:27:03.279Z,24.20
2023-03-12T00:29:30.918Z,24.10
2023-03-12T00:31:58.633Z,24.20
2023-03-12T00:34:26.273Z,24.10
2023-03-12T00:36:53.916Z,24.10
2023-03-12T00:39:22.917Z,24.10
2023-03-12T00:41:50.673Z,24.10
2023-03-12T00:44:18.337Z,24.10
2023-03-12T00:46:46.030Z,24.10
2023-03-12T00:49:13.744Z,24.00
2023-03-12T00:51:41.427Z,24.00
2023-03-12T00:54:09.162Z,24.00
2023-03-12T00:56:38.134Z,24.00
2023-03-12T00:59:05.797Z,24.00
2023-03-12T01:01:33.485Z,24.00
2023-03-12T01:04:01.226Z,24.00
2023-03-12T01:06:29.064Z,24.00
2023-03-12T01:08:56.715Z,24.00
2023-03-12T01:11:24.414Z,24.00
2023-03-12T01:13:53.586Z,23.90
2023-03-12T01:16:22.271Z,23.90
2023-03-12T01:18:49.999Z,23.90
2023-03-12T01:21:17.645Z,23.90
2023-03-12T01:23:45.349Z,23.90
2023-03-12T01:26:13.047Z,23.90
2023-03-12T01:28:40.754Z,23.90
2023-03-12T01:31:10.464Z,23.90
2023-03-12T01:33:38.228Z,23.90
2023-03-12T01:36:06.934Z,23.90
2023-03-12T01:38:34.580Z,23.90
2023-03-12T01:41:02.318Z,23.80
2023-03-12T01:43:32.105Z,23.80
2023-03-12T01:46:06.890Z,23.80
2023-03-12T01:48:40.878Z,23.80
2023-03-12T01:51:11.555Z,23.80
2023-03-12T01:53:40.125Z,23.80
2023-03-12T01:56:08.570Z,23.80
2023-03-12T01:58:38.965Z,23.80
2023-03-12T02:01:07.601Z,23.80
2023-03-12T02:03:38.047Z,23.70
2023-03-12T02:06:11.113Z,23.70
2023-03-12T02:08:43.245Z,23.70
2023-03-12T02:11:11.312Z,23.70
2023-03-12T02:13:40.154Z,23.70
2023-03-12T02:16:08.747Z,23.70
2023-03-12T02:18:37.797Z,23.70
2023-03-12T02:21:15.090Z,23.70
2023-03-12T02:23:48.805Z,23.60
2023-03-12T02:26:20.086Z,23.60
2023-03-12T02:28:48.927Z,23.60
2023-03-12T02:31:20.692Z,23.60
2023-03-12T02:33:48.364Z,23.60
2023-03-12T02:36:16.102Z,23.60
2023-03-12T02:38:46.769Z,23.60
2023-03-12T02:41:21.465Z,23.60
2023-03-12T02:43:53.019Z,23.60
2023-03-12T02:46:21.520Z,23.60
2023-03-12T02:48:49.351Z,23.60
2023-03-12T02:51:17.061Z,23.50
2023-03-12T02:53:45.235Z,23.50
2023-03-12T02:56:12.868Z,23.50
2023-03-12T02:58:43.210Z,23.50
2023-03-12T03:01:11.741Z,23.50
2023-03-12T03:03:39.407Z,23.50
2023-03-12T03:06:07.210Z,23.50
2023-03-12T03:08:34.908Z,23.50
2023-03-12T03:11:03.555Z,23.50
2023-03-12T03:13:31.363Z,23.50
2023-03-12T03:16:01.985Z,23.50
2023-03-12T03:18:30.250Z,23.50
2023-03-12T03:20:58.664Z,23.40
2023-03-12T03:23:26.602Z,23.40
2023-03-12T03:25:54.793Z,23.40
2023-03-12T03:28:24.452Z,23.40
2023-03-12T03:30:54.197Z,23.40
2023-03-12T03:33:23.246Z,23.40
2023-03-12T03:35:51.425Z,23.40
2023-03-12T03:38:19.082Z,23.40
2023-03-12T03:40:46.877Z,23.40
2023-03-12T03:43:14.526Z,23.40
2023-03-12T03:45:44.764Z,23.40
2023-03-12T03:48:12.842Z,23.40
2023-03-12T03:50:42.639Z,23.30
2023-03-12T03:53:10.854Z,23.30
2023-03-12T03:55:39.582Z,23.30
2023-03-12T03:58:07.799Z,23.30
2023-03-12T04:00:35.478Z,23.30
2023-03-12T04:03:03.190Z,23.30
2023-03-12T04:05:30.932Z,23.30
2023-03-12T04:08:03.190Z,23.30
2023-03-12T04:10:31.725Z,23.30
2023-03-12T04:12:59.390Z,23.30
2023-03-12T04:15:27.004Z,23.30
2023-03-12T04:17:54.664Z,23.30
2023-03-12T04:20:22.315Z,23.20
2023-03-12T04:22:49.968Z,23.30
2023-03-12T04:25:19.136Z,23.20
2023-03-12T04:27:46.818Z,23.20
2023-03-12T04:30:15.151Z,23.20
2023-03-12T04:32:43.010Z,23.20
2023-03-12T04:35:10.697Z,23.20
2023-03-12T04:37:38.390Z,23.20
2023-03-12T04:40:08.163Z,23.20
2023-03-12T04:42:37.891Z,23.20
2023-03-12T04:45:07.251Z,23.20
2023-03-12T04:47:35.028Z,23.20
2023-03-12T04:50:04.679Z,23.10
2023-03-12T04:52:32.384Z,23.10
2023-03-12T04:55:00.479Z,23.10
2023-03-12T04:57:28.320Z,23.10
2023-03-12T04:59:57.318Z,23.10
2023-03-12T05:02:25.284Z,23.10
2023-03-12T05:04:52.943Z,23.10
2023-03-12T05:07:20.813Z,23.10
2023-03-12T05:09:48.464Z,23.10
2023-03-12T05:12:16.107Z,23.10
2023-03-12T05:14:43.734Z,23.10
2023-03-12T05:17:12.777Z,23.10
2023-03-12T05:19:40.427Z,23.10
2023-03-12T05:22:08.081Z,23.00
2023-03-12T05:24:36.838Z,23.00
2023-03-12T05:27:04.591Z,23.00
2023-03-12T05:29:35.367Z,23.00
2023-03-12T05:32:03.225Z,23.00
2023-03-12T05:34:33.071Z,23.00
2023-03-12T05:37:01.106Z,23.00
2023-03-12T05:39:28.890Z,22.90
2023-03-12T05:41:57.315Z,22.90
2023-03-12T05:44:26.137Z,22.90
2023-03-12T05:46:55.701Z,22.90
2023-03-12T05:49:24.264Z,22.90
2023-03-12T05:51:53.290Z,22.90
2023-03-12T05:54:21.335Z,22.90
2023-03-12T05:56:49.021Z,22.90
2023-03-12T05:59:16.805Z,22.90
2023-03-12T06:01:44.948Z,22.90
2023-03-12T06:04:12.694Z,22.90
2023-03-12T06:06:40.411Z,22.90
2023-03-12T06:09:09.625Z,22.90
2023-03-12T06:11:37.398Z,22.90
2023-03-12T06:14:05.549Z,22.90
2023-03-12T06:16:33.416Z,22.90
2023-03-12T06:19:03.027Z,22.90
2023-03-12T06:21:33.738Z,22.90
2023-03-12T06:24:02.092Z,22.90
2023-03-12T06:26:31.377Z,22.90
2023-03-12T06:28:59.207Z,22.90
2023-03-12T06:31:26.897Z,22.90
2023-03-12T06:33:54.756Z,22.90
2023-03-12T06:36:23.059Z,22.90
2023-03-12T06:38:50.957Z,22.90
2023-03-12T06:41:20.376Z,22.90
2023-03-12T06:43:49.551Z,22.90
2023-03-12T06:46:19.458Z,23.00
2023-03-12T06:48:47.460Z,23.00
2023-03-12T06:51:17.022Z,23.00
2023-03-12T06:53:45.388Z,23.00
2023-03-12T06:56:14.117Z,23.00
2023-03-12T06:58:42.004Z,23.00
2023-03-12T07:01:11.123Z,23.00
2023-03-12T07:03:39.031Z,23.00
2023-03-12T07:06:13.749Z,23.00
2023-03-12T07:08:41.420Z,23.00
2023-03-12T07:11:09.144Z,23.10
2023-03-12T07:13:36.977Z,23.10
2023-03-12T07:16:05.452Z,23.10
2023-03-12T07:18:35.157Z,23.10
2023-03-12T07:21:03.013Z,23.10
2023-03-12T07:23:30.701Z,23.10
2023-03-12T07:25:58.390Z,23.10
2023-03-12T07:28:26.031Z,23.10
2023-03-12T07:30:53.761Z,23.10
2023-03-12T07:33:22.783Z,23.10
2023-03-12T07:35:52.238Z,23.10
2023-03-12T07:38:20.084Z,23.10
2023-03-12T07:40:51.714Z,23.20
2023-03-12T07:43:21.633Z,23.20
2023-03-12T07:45:49.903Z,23.20
2023-03-12T07:48:19.792Z,23.20
2023-03-12T07:50:47.613Z,23.20
2023-03-12T07:53:16.831Z,23.20
2023-03-12T07:55:46.146Z,23.20
2023-03-12T07:58:14.295Z,23.20
2023-03-12T08:00:42.203Z,23.20
2023-03-12T08:03:10.273Z,23.20
2023-03-12T08:05:38.151Z,23.30
2023-03-12T08:08:05.930Z,23.30
2023-03-12T08:10:35.072Z,23.30
2023-03-12T08:15:29.006Z,23.30
2023-03-12T08:17:56.626Z,23.30
2023-03-12T08:20:24.306Z,23.30
2023-03-12T08:22:51.998Z,23.30
2023-03-12T08:25:21.120Z,23.30
2023-03-12T08:27:50.198Z,23.30
2023-03-12T08:30:18.354Z,23.40
2023-03-12T08:32:46.027Z,23.40
2023-03-12T08:35:13.735Z,23.40
2023-03-12T08:37:41.479Z,23.40
2023-03-12T08:40:13.212Z,23.40
2023-03-12T08:42:41.043Z,23.40
2023-03-12T08:45:11.647Z,23.40
2023-03-12T08:47:41.562Z,23.40
2023-03-12T08:50:11.284Z,23.40
2023-03-12T08:52:39.165Z,23.40
2023-03-12T08:55:07.762Z,23.40
2023-03-12T08:57:35.521Z,23.40
2023-03-12T09:00:05.279Z,23.40
2023-03-12T09:02:34.364Z,23.50
2023-03-12T09:05:01.995Z,23.40
2023-03-12T09:07:29.697Z,23.50
2023-03-12T09:09:57.406Z,23.50
2023-03-12T09:12:25.600Z,23.50
2023-03-12T09:15:09.004Z,23.50
2023-03-12T09:17:38.744Z,23.50
2023-03-12T09:20:09.388Z,23.50
2023-03-12T09:22:37.886Z,23.50
2023-03-12T09:25:06.749Z,23.50
2023-03-12T09:27:37.221Z,23.50
2023-03-12T09:30:06.599Z,23.50
2023-03-12T09:32:34.413Z,23.50
2023-03-12T09:35:03.430Z,23.50
2023-03-12T09:37:32.307Z,23.60
2023-03-12T09:40:00.278Z,23.60
2023-03-12T09:42:32.863Z,23.60
2023-03-12T09:45:04.582Z,23.60
2023-03-12T09:47:34.979Z,23.60
2023-03-12T09:50:11.943Z,23.60
2023-03-12T09:52:43.776Z,23.60
2023-03-12T09:55:15.500Z,23.60
2023-03-12T09:57:44.336Z,23.60
2023-03-12T10:00:15.244Z,23.60
2023-03-12T10:03:01.245Z,23.60
2023-03-12T10:05:38.835Z,23.70
2023-03-12T10:08:24.382Z,23.70
2023-03-12T10:10:57.115Z,23.70
2023-03-12T10:13:37.203Z,23.70
2023-03-12T10:16:14.758Z,23.70
2023-03-12T10:19:04.155Z,23.70
2023-03-12T10:21:38.577Z,23.80
2023-03-12T10:24:16.213Z,23.80
2023-03-12T10:26:46.777Z,23.80
2023-03-12T10:29:18.328Z,23.80
2023-03-12T10:31:54.859Z,23.80
2023-03-12T10:34:29.725Z,23.80
2023-03-12T10:37:04.141Z,23.80
2023-03-12T10:39:32.174Z,23.80
2023-03-12T10:42:02.166Z,23.80
2023-03-12T10:44:30.701Z,23.80
2023-03-12T10:47:26.637Z,23.80
2023-03-12T10:49:54.314Z,23.90
2023-03-12T10:52:24.581Z,23.90
2023-03-12T10:54:53.914Z,23.90
2023-03-12T10:57:22.713Z,23.90
2023-03-12T10:59:51.337Z,23.90
2023-03-12T11:02:35.161Z,23.90
2023-03-12T11:05:19.303Z,23.90
2023-03-12T11:07:48.386Z,23.90
2023-03-12T11:10:23.128Z,23.90
2023-03-12T11:13:03.061Z,23.90
2023-03-12T11:15:38.777Z,23.90
2023-03-12T11:18:27.982Z,23.90
2023-03-12T11:20:57.614Z,23.90
2023-03-12T11:23:29.417Z,23.90
2023-03-12T11:26:00.517Z,23.90
2023-03-12T11:28:36.635Z,23.90
2023-03-12T11:31:09.259Z,23.90
2023-03-12T11:33:37.039Z,23.90
2023-03-12T11:36:15.626Z,23.90
2023-03-12T11:38:50.712Z,23.90
2023-03-12T11:41:35.111Z,23.90
2023-03-12T11:44:18.988Z,23.90
2023-03-12T11:46:57.689Z,23.90
2023-03-12T11:49:40.784Z,23.90
2023-03-12T11:52:18.341Z,23.90
2023-03-12T11:55:18.598Z,23.90
2023-03-12T11:57:58.140Z,23.90
2023-03-12T12:00:33.629Z,23.90
2023-03-12T12:03:26.665Z,23.90
2023-03-12T12:06:01.550Z,23.90
2023-03-12T12:08:39.347Z,23.90
2023-03-12T12:11:14.842Z,23.90
2023-03-12T12:13:52.488Z,23.90
2023-03-12T12:16:34.175Z,23.90
2023-03-12T12:19:11.964Z,23.90
2023-03-12T12:21:58.120Z,24.00
2023-03-12T12:24:43.653Z,23.90
2023-03-12T12:27:21.256Z,23.90
2023-03-12T12:30:11.825Z,23.90
2023-03-12T12:32:58.742Z,24.00
2023-03-12T12:35:30.941Z,24.00
2023-03-12T12:38:01.019Z,24.00
2023-03-12T12:40:33.727Z,24.00
2023-03-12T12:43:16.440Z,24.00
2023-03-12T12:45:46.139Z,23.90
2023-03-12T12:48:18.913Z,24.00
2023-03-12T12:50:48.747Z,24.00
2023-03-12T12:53:22.857Z,24.00
2023-03-12T12:56:00.301Z,24.00
2023-03-12T12:58:48.794Z,24.00
2023-03-12T13:01:18.222Z,24.00
2023-03-12T13:03:47.226Z,24.00
2023-03-12T13:06:14.957Z,24.00
2023-03-12T13:09:14.096Z,24.00
2023-03-12T13:11:46.360Z,24.00
2023-03-12T13:14:35.238Z,24.00
2023-03-12T13:17:21.731Z,24.00
2023-03-12T13:20:00.926Z,24.00
2023-03-12T13:22:45.931Z,24.10
2023-03-12T13:25:26.912Z,24.10
2023-03-12T13:28:00.445Z,24.10
2023-03-12T13:30:51.532Z,24.10
2023-03-12T13:33:22.454Z,24.10
2023-03-12T13:36:06.495Z,24.20
2023-03-12T13:38:39.737Z,24.20
2023-03-12T13:41:08.703Z,24.20
2023-03-12T13:43:54.487Z,24.20
2023-03-12T13:46:30.512Z,24.20
2023-03-12T13:49:01.716Z,24.20
2023-03-12T13:51:29.489Z,24.20
2023-03-12T13:54:01.229Z,24.20
2023-03-12T13:56:31.131Z,24.20
2023-03-12T13:59:02.542Z,24.20
2023-03-12T14:01:36.555Z,24.20
2023-03-12T14:04:09.421Z,24.30
2023-03-12T14:06:54.996Z,24.30
2023-03-12T14:09:31.734Z,24.30
2023-03-12T14:12:06.525Z,24.30
2023-03-12T14:15:04.513Z,24.30
2023-03-12T14:17:35.520Z,24.30
2023-03-12T14:20:07.414Z,24.30
2023-03-12T14:22:37.103Z,24.30
2023-03-12T14:25:14.023Z,24.30
2023-03-12T14:27:42.517Z,24.30
2023-03-12T14:30:17.543Z,24.30
2023-03-12T14:32:48.799Z,24.30
2023-03-12T14:35:21.808Z,24.30
2023-03-12T14:37:55.676Z,24.40
2023-03-12T14:40:26.800Z,24.40
2023-03-12T14:42:55.608Z,24.40
2023-03-12T14:45:24.190Z,24.40
2023-03-12T14:47:57.320Z,24.40
2023-03-12T14:50:27.809Z,24.40
2023-03-12T14:52:57.296Z,24.40
2023-03-12T14:55:26.884Z,24.40
2023-03-12T14:58:05.876Z,24.40
2023-03-12T15:00:34.484Z,24.50
2023-03-12T15:03:11.920Z,24.50
2023-03-12T15:05:39.763Z,24.50
2023-03-12T15:08:08.941Z,24.50
2023-03-12T15:10:38.561Z,24.50
2023-03-12T15:13:06.594Z,24.50
2023-03-12T15:15:39.166Z,24.50
2023-03-12T15:18:23.929Z,24.50
2023-03-12T15:20:53.664Z,24.50
2023-03-12T15:23:25.763Z,24.50
2023-03-12T15:26:33.086Z,24.50
2023-03-12T15:29:02.466Z,24.50
2023-03-12T15:31:45.422Z,24.50
2023-03-12T15:34:32.900Z,24.50
2023-03-12T15:37:02.527Z,24.50
2023-03-12T15:39:34.427Z,24.50
2023-03-12T15:42:03.974Z,24.50
2023-03-12T15:44:44.607Z,24.50
2023-03-12T15:47:18.784Z,24.60
2023-03-12T15:53:35.355Z,24.50
2023-03-12T15:56:06.136Z,24.50
2023-03-12T15:58:36.047Z,24.50
2023-03-12T16:01:13.467Z,24.50
2023-03-12T16:03:42.794Z,24.50
2023-03-12T16:06:13.606Z,24.60
2023-03-12T16:08:48.732Z,24.60
2023-03-12T16:11:19.755Z,24.60
2023-03-12T16:13:50.043Z,24.60
2023-03-12T16:16:17.992Z,24.60
2023-03-12T16:18:46.028Z,24.60
2023-03-12T16:21:14.339Z,24.60
2023-03-12T16:23:43.703Z,24.60
2023-03-12T16:26:14.415Z,24.60
2023-03-12T16:28:43.905Z,24.60
2023-03-12T16:31:21.202Z,24.70
2023-03-12T16:33:49.098Z,24.70
2023-03-12T16:36:19.224Z,24.70
2023-03-12T16:38:48.276Z,24.70
2023-03-12T16:41:19.069Z,24.70
2023-03-12T16:43:51.150Z,24.70
2023-03-12T16:46:21.682Z,24.70
2023-03-12T16:48:52.404Z,24.70
2023-03-12T16:51:20.785Z,24.70
2023-03-12T16:54:05.294Z,24.80
2023-03-12T16:56:36.964Z,24.80
2023-03-12T16:59:07.826Z,24.80
2023-03-12T17:01:37.106Z,24.80
2023-03-12T17:04:05.027Z,24.80
2023-03-12T17:06:32.896Z,24.80
2023-03-12T17:09:02.325Z,24.80
2023-03-12T17:11:32.869Z,24.80
2023-03-12T17:14:02.605Z,24.80
2023-03-12T17:16:30.765Z,24.80
2023-03-12T17:18:58.459Z,24.80
2023-03-12T17:21:26.156Z,24.80
2023-03-12T17:23:53.808Z,24.80
2023-03-12T17:26:22.964Z,24.80
2023-03-12T17:28:50.646Z,24.80
2023-03-12T17:31:18.430Z,24.80
2023-03-12T17:33:46.197Z,24.80
2023-03-12T17:36:14.062Z,24.80
2023-03-12T17:38:41.763Z,24.80
2023-03-12T17:41:25.142Z,24.80
2023-03-12T17:43:55.126Z,24.80
2023-03-12T17:46:23.167Z,24.80
2023-03-12T17:48:50.904Z,24.80
2023-03-12T17:51:18.637Z,24.80
2023-03-12T17:53:47.196Z,24.80
2023-03-12T17:56:17.921Z,24.80
2023-03-12T17:58:45.790Z,24.80
2023-03-12T18:01:15.577Z,24.80
2023-03-12T18:03:44.125Z,24.80
2023-03-12T18:06:12.150Z,24.80
2023-03-12T18:08:39.927Z,24.80
2023-03-12T18:11:07.640Z,24.80
2023-03-12T18:13:35.338Z,24.80
2023-03-12T18:16:03.282Z,24.80
2023-03-12T18:18:32.386Z,24.80
2023-03-12T18:21:00.059Z,24.80
2023-03-12T18:23:27.846Z,24.80
2023-03-12T18:25:55.521Z,24.80
2023-03-12T18:28:24.106Z,24.80
2023-03-12T18:30:54.385Z,24.80
2023-03-12T18:33:22.073Z,24.80
2023-03-12T18:35:53.236Z,24.80
2023-03-12T18:38:22.078Z,24.80
2023-03-12T18:40:51.294Z,24.80
2023-03-12T18:43:20.795Z,24.80
2023-03-12T18:45:50.981Z,24.80
2023-03-12T18:48:18.662Z,24.80
2023-03-12T18:50:46.333Z,24.80
2023-03-12T18:53:15.369Z,24.90
2023-03-12T18:55:50.776Z,24.90
2023-03-12T18:58:18.856Z,24.90
2023-03-12T19:00:46.842Z,24.90
2023-03-12T19:03:14.687Z,24.90
2023-03-12T19:05:42.536Z,24.90
2023-03-12T19:08:10.311Z,24.90
2023-03-12T19:10:42.250Z,24.90
2023-03-12T19:13:10.173Z,24.90
2023-03-12T19:15:39.344Z,24.90
2023-03-12T19:18:07.317Z,24.90
2023-03-12T19:20:36.523Z,24.90
2023-03-12T19:23:04.240Z,24.90
2023-03-12T19:25:32.126Z,24.90
2023-03-12T19:28:01.273Z,24.90
2023-03-12T19:30:30.700Z,24.90
2023-03-12T19:32:58.455Z,24.90
2023-03-12T19:35:26.224Z,24.90
2023-03-12T19:37:54.112Z,24.90
2023-03-12T19:40:21.847Z,24.90
2023-03-12T19:42:49.486Z,24.90
2023-03-12T19:45:18.706Z,24.90
2023-03-12T19:47:46.399Z,24.90
2023-03-12T19:50:14.288Z,25.00
2023-03-12T19:52:41.982Z,25.00
2023-03-12T19:55:11.935Z,25.00
2023-03-12T19:57:40.541Z,25.00
2023-03-12T20:00:12.424Z,25.00
2023-03-12T20:02:43.096Z,25.00
2023-03-12T20:05:11.685Z,25.00
2023-03-12T20:07:39.717Z,25.00
2023-03-12T20:10:10.935Z,25.00
2023-03-12T20:12:39.619Z,25.00
2023-03-12T20:15:08.378Z,25.00
2023-03-12T20:17:36.063Z,25.10
2023-03-12T20:20:06.932Z,25.10
2023-03-12T20:22:36.284Z,25.10
2023-03-12T20:25:04.329Z,25.10
2023-03-12T20:27:34.064Z,25.10
2023-03-12T20:30:03.555Z,25.10
2023-03-12T20:32:31.702Z,25.10
2023-03-12T20:34:59.584Z,25.10
2023-03-12T20:37:28.720Z,25.10
2023-03-12T20:39:56.448Z,25.10
2023-03-12T20:42:24.152Z,25.10
2023-03-12T20:44:51.827Z,25.10
2023-03-12T20:47:19.514Z,25.20
2023-03-12T20:49:47.152Z,25.20
2023-03-12T20:52:14.841Z,25.20
2023-03-12T20:54:44.036Z,25.20
2023-03-12T20:57:11.664Z,25.20
2023-03-12T20:59:39.307Z,25.20
2023-03-12T21:02:06.980Z,25.20
2023-03-12T21:04:34.651Z,25.20
2023-03-12T21:07:02.280Z,25.20
2023-03-12T21:09:29.905Z,25.20
2023-03-12T21:11:58.923Z,25.20
2023-03-12T21:14:26.850Z,25.20
2023-03-12T21:16:55.365Z,25.20
2023-03-12T21:19:26.945Z,25.20
2023-03-12T21:21:56.915Z,25.20
2023-03-12T21:24:24.724Z,25.20
2023-03-12T21:26:52.411Z,25.30
2023-03-12T21:29:21.485Z,25.30
2023-03-12T21:31:51.886Z,25.20
2023-03-12T21:34:19.653Z,25.30
2023-03-12T21:36:47.520Z,25.30
2023-03-12T21:39:15.303Z,25.30
2023-03-12T21:41:43.125Z,25.30
2023-03-12T21:44:10.819Z,25.30
2023-03-12T21:46:39.968Z,25.30
2023-03-12T21:49:08.200Z,25.30
2023-03-12T21:51:39.108Z,25.30
2023-03-12T21:54:08.099Z,25.30
2023-03-12T21:56:35.779Z,25.30
2023-03-12T21:59:05.566Z,25.30
2023-03-12T22:01:33.434Z,25.30
2023-03-12T22:04:03.251Z,25.30
2023-03-12T22:06:31.355Z,25.30
2023-03-12T22:08:58.987Z,25.30
2023-03-12T22:11:26.969Z,25.30
2023-03-12T22:13:54.572Z,25.30
2023-03-12T22:16:22.544Z,25.30
2023-03-12T22:18:50.282Z,25.30
2023-03-12T22:21:21.866Z,25.30
2023-03-12T22:23:51.041Z,25.30
2023-03-12T22:26:19.894Z,25.30
2023-03-12T22:28:49.342Z,25.40
2023-03-12T22:31:17.361Z,25.40
2023-03-12T22:33:45.201Z,25.40
2023-03-12T22:36:15.259Z,25.40
2023-03-12T22:38:44.897Z,25.40
2023-03-12T22:41:17.674Z,25.40
2023-03-12T22:43:46.237Z,25.40
2023-03-12T22:46:16.734Z,25.40
2023-03-12T22:48:44.540Z,25.40
2023-03-12T22:51:12.820Z,25.40
2023-03-12T22:53:40.933Z,25.40
2023-03-12T22:56:12.725Z,25.40
2023-03-12T22:58:40.743Z,25.40
2023-03-12T23:01:10.769Z,25.40
2023-03-12T23:03:40.000Z,25.40
2023-03-12T23:06:10.815Z,25.40
2023-03-12T23:08:38.612Z,25.40
2023-03-12T23:11:07.979Z,25.50
2023-03-12T23:13:39.172Z,25.50
2023-03-12T23:16:09.581Z,25.50
2023-03-12T23:18:39.559Z,25.50
2023-03-12T23:21:09.475Z,25.50
2023-03-12T23:23:39.481Z,25.50
2023-03-12T23:26:07.744Z,25.50
2023-03-12T23:28:36.737Z,25.50
2023-03-12T23:31:07.196Z,25.50
2023-03-12T23:33:35.533Z,25.50
2023-03-12T23:36:06.308Z,25.50
2023-03-12T23:38:37.312Z,25.50
2023-03-12T23:41:07.182Z,25.50
2023-03-12T23:43:35.050Z,25.50
2023-03-12T23:46:06.440Z,25.50
2023-03-12T23:48:35.253Z,25.50
2023-03-12T23:51:07.368Z,25.50
2023-03-12T23:53:35.481Z,25.50
2023-03-12T23:56:04.612Z,25.50
2023-03-12T23:58:32.389Z,25.50
